createdAt,value
2019-06-20T00:00:55.787Z,93.03
2019-06-20T00:03:24.933Z,93.12
2019-06-20T00:05:54.141Z,92.95
2019-06-20T00:08:23.307Z,93.32
2019-06-20T00:10:52.596Z,93.73
2019-06-20T00:13:21.757Z,93.96
2019-06-20T00:15:50.920Z,94.04
2019-06-20T00:18:20.223Z,93.85
2019-06-20T00:20:49.393Z,93.75
2019-06-20T00:23:18.702Z,94.16
2019-06-20T00:25:47.967Z,94.18
2019-06-20T00:28:17.123Z,94.39
2019-06-20T00:30:46.405Z,94.35
2019-06-20T00:33:15.588Z,93.92
2019-06-20T00:35:46.366Z,93.53
2019-06-20T00:38:15.622Z,93.60
2019-06-20T00:40:44.807Z,93.88
2019-06-20T00:43:17.985Z,94.02
2019-06-20T00:45:44.941Z,94.05
2019-06-20T00:48:15.835Z,94.24
2019-06-20T00:50:45.068Z,94.03
2019-06-20T00:53:14.399Z,93.39
2019-06-20T00:55:43.639Z,93.27
2019-06-20T00:58:14.049Z,93.05
2019-06-20T01:00:45.304Z,92.44
2019-06-20T01:03:14.471Z,92.30
2019-06-20T01:05:43.678Z,91.74
2019-06-20T01:08:12.925Z,91.19
2019-06-20T01:10:42.567Z,91.46
2019-06-20T01:13:11.743Z,91.74
2019-06-20T01:15:40.942Z,91.86
2019-06-20T01:18:10.366Z,91.86
2019-06-20T01:20:39.535Z,91.09
2019-06-20T01:23:08.706Z,90.97
2019-06-20T01:25:39.332Z,90.43
2019-06-20T01:28:08.930Z,90.92
2019-06-20T01:30:38.206Z,90.95
2019-06-20T01:33:07.934Z,91.22
2019-06-20T01:35:37.329Z,91.09
2019-06-20T01:38:06.529Z,91.09
2019-06-20T01:40:35.687Z,91.33
2019-06-20T01:43:05.986Z,90.63
2019-06-20T01:45:35.197Z,90.60
2019-06-20T01:48:06.001Z,90.92
2019-06-20T01:50:35.190Z,91.13
2019-06-20T01:53:04.377Z,91.19
2019-06-20T01:55:33.540Z,91.46
2019-06-20T01:58:02.839Z,91.43
2019-06-20T02:00:51.042Z,91.52
2019-06-20T02:03:22.643Z,91.49
2019-06-20T02:05:53.279Z,91.37
2019-06-20T02:08:24.086Z,90.37
2019-06-20T02:10:53.277Z,90.21
2019-06-20T02:13:22.643Z,90.32
2019-06-20T02:15:51.795Z,90.79
2019-06-20T02:18:21.068Z,90.56
2019-06-20T02:20:52.863Z,90.00
2019-06-20T02:23:22.260Z,89.92
2019-06-20T02:25:51.543Z,89.92
2019-06-20T02:28:20.993Z,89.79
2019-06-20T02:30:50.209Z,89.99
2019-06-20T02:33:19.439Z,90.06
2019-06-20T02:35:48.854Z,89.99
2019-06-20T02:38:18.025Z,89.53
2019-06-20T02:40:47.370Z,89.24
2019-06-20T02:43:16.565Z,89.09
2019-06-20T02:45:47.390Z,89.34
2019-06-20T02:48:16.769Z,88.45
2019-06-20T02:50:46.193Z,100.00
2019-06-20T20:04:51.320Z,67.49
2019-06-20T20:07:21.057Z,67.60
2019-06-20T20:09:50.940Z,67.66
2019-06-20T20:12:20.375Z,68.18
2019-06-20T20:14:49.986Z,67.66
2019-06-20T20:17:19.420Z,68.36
2019-06-20T20:19:51.399Z,69.01
2019-06-20T20:22:23.065Z,69.04
2019-06-20T20:24:52.520Z,68.73
2019-06-20T20:27:22.526Z,68.84
2019-06-20T20:29:52.761Z,69.30
2019-06-20T20:32:22.326Z,69.61
2019-06-20T20:34:51.878Z,70.17
2019-06-20T20:37:21.105Z,69.08
2019-06-20T20:39:50.438Z,69.27
2019-06-20T20:42:19.972Z,68.17
2019-06-20T20:44:50.094Z,70.33
2019-06-20T20:47:19.633Z,71.67
2019-06-20T20:49:48.859Z,69.46
2019-06-20T20:52:18.049Z,69.57
2019-06-20T20:54:47.329Z,70.31
2019-06-20T20:57:16.543Z,71.33
2019-06-20T20:59:47.145Z,69.90
2019-06-20T21:02:16.510Z,70.42
2019-06-20T21:04:45.717Z,71.71
2019-06-20T21:07:14.986Z,70.89
2019-06-20T21:09:44.525Z,71.19
2019-06-20T21:12:13.724Z,71.20
2019-06-20T21:14:44.979Z,70.94
2019-06-20T21:17:14.146Z,70.25
2019-06-20T21:19:43.389Z,70.09
2019-06-20T21:22:12.673Z,69.62
2019-06-20T21:24:41.862Z,70.97
2019-06-20T21:27:11.207Z,70.47
2019-06-20T21:29:40.519Z,70.22
2019-06-20T21:32:09.732Z,71.12
2019-06-20T21:34:38.989Z,71.22
2019-06-20T21:37:08.151Z,70.36
2019-06-20T21:39:38.806Z,70.12
2019-06-20T21:42:08.413Z,71.18
2019-06-20T21:44:37.659Z,69.31
2019-06-20T21:47:06.846Z,69.55
2019-06-20T21:49:36.167Z,70.20
2019-06-20T21:52:05.483Z,71.23
2019-06-20T21:54:34.628Z,72.48
2019-06-20T21:57:03.863Z,72.64
2019-06-20T21:59:33.022Z,71.53
2019-06-20T22:02:02.238Z,70.85
2019-06-20T22:04:31.498Z,70.37
2019-06-20T22:07:00.661Z,70.55
2019-06-20T22:09:30.041Z,70.60
2019-06-20T22:11:59.250Z,71.36
2019-06-20T22:14:28.384Z,69.88
2019-06-20T22:16:57.559Z,70.68
2019-06-20T22:19:26.773Z,71.15
2019-06-20T22:21:55.929Z,72.19
2019-06-20T22:24:25.111Z,70.15
2019-06-20T22:26:54.399Z,71.70
2019-06-20T22:29:23.587Z,72.85
2019-06-20T22:31:52.763Z,72.67
2019-06-20T22:34:21.975Z,73.58
2019-06-20T22:36:51.143Z,74.38
2019-06-20T22:39:20.293Z,73.77
2019-06-20T22:41:49.495Z,73.85
2019-06-20T22:44:18.865Z,72.68
2019-06-20T22:46:48.016Z,73.42
2019-06-20T22:49:17.330Z,73.53
2019-06-20T22:51:46.494Z,74.05
2019-06-20T22:54:15.767Z,74.15
2019-06-20T22:56:44.925Z,74.76
2019-06-20T22:59:14.176Z,75.58
2019-06-20T23:01:43.490Z,75.63
2019-06-20T23:04:14.204Z,75.77
2019-06-20T23:06:55.912Z,75.80
2019-06-20T23:09:14.296Z,75.00
2019-06-20T23:11:43.556Z,74.80
2019-06-20T23:14:12.860Z,74.29
2019-06-20T23:16:42.301Z,74.23
2019-06-20T23:19:11.674Z,74.53
2019-06-20T23:21:40.961Z,75.08
2019-06-20T23:24:10.280Z,75.26
2019-06-20T23:26:39.551Z,75.15
2019-06-20T23:29:23.827Z,74.66
2019-06-20T23:31:53.742Z,74.76
2019-06-20T23:34:22.949Z,74.33
2019-06-20T23:36:52.101Z,75.08
2019-06-20T23:39:21.309Z,74.37
2019-06-20T23:41:50.624Z,74.37
2019-06-20T23:44:19.799Z,75.10
2019-06-20T23:46:48.985Z,76.22
2019-06-20T23:49:18.270Z,76.12
2019-06-20T23:52:02.189Z,74.95
2019-06-20T23:54:31.392Z,74.80
2019-06-20T23:57:02.062Z,76.19
2019-06-20T23:59:31.226Z,76.40
